sensor_id;sensor_type;location;lat;lon;timestamp;P1;durP1;ratioP1;P2;durP2;ratioP2
68947;SDS011;55996;49.546;7.400;2023-07-22T00:02:14;3.63;;;2.70;;
68947;SDS011;55996;49.546;7.400;2023-07-22T00:04:40;3.67;;;3.00;;
68947;SDS011;55996;49.546;7.400;2023-07-22T00:07:05;3.80;;;2.47;;
68947;SDS011;55996;49.546;7.400;2023-07-22T00:09:32;3.13;;;2.50;;
68947;SDS011;55996;49.546;7.400;2023-07-22T00:11:59;3.33;;;2.60;;
68947;SDS011;55996;49.546;7.400;2023-07-22T00:14:24;3.97;;;2.67;;
68947;SDS011;55996;49.546;7.400;2023-07-22T00:16:50;3.20;;;2.70;;
68947;SDS011;55996;49.546;7.400;2023-07-22T00:19:16;4.37;;;2.87;;
68947;SDS011;55996;49.546;7.400;2023-07-22T00:21:41;4.73;;;3.00;;
68947;SDS011;55996;49.546;7.400;2023-07-22T00:24:07;3.23;;;2.93;;
68947;SDS011;55996;49.546;7.400;2023-07-22T00:26:32;3.80;;;2.43;;
68947;SDS011;55996;49.546;7.400;2023-07-22T00:28:58;5.50;;;2.80;;
68947;SDS011;55996;49.546;7.400;2023-07-22T00:31:23;3.27;;;2.50;;
68947;SDS011;55996;49.546;7.400;2023-07-22T00:33:49;4.00;;;2.80;;
68947;SDS011;55996;49.546;7.400;2023-07-22T00:36:14;3.23;;;2.50;;
68947;SDS011;55996;49.546;7.400;2023-07-22T00:38:40;3.10;;;2.70;;
68947;SDS011;55996;49.546;7.400;2023-07-22T00:41:05;2.57;;;2.37;;
68947;SDS011;55996;49.546;7.400;2023-07-22T00:43:32;3.43;;;3.07;;
68947;SDS011;55996;49.546;7.400;2023-07-22T00:45:58;4.17;;;3.10;;
68947;SDS011;55996;49.546;7.400;2023-07-22T00:48:23;3.93;;;3.00;;
68947;SDS011;55996;49.546;7.400;2023-07-22T00:50:49;4.67;;;2.93;;
68947;SDS011;55996;49.546;7.400;2023-07-22T00:53:15;4.63;;;2.90;;
68947;SDS011;55996;49.546;7.400;2023-07-22T00:55:41;4.57;;;3.00;;
68947;SDS011;55996;49.546;7.400;2023-07-22T00:58:06;3.37;;;3.07;;
68947;SDS011;55996;49.546;7.400;2023-07-22T01:00:32;5.17;;;3.10;;
68947;SDS011;55996;49.546;7.400;2023-07-22T01:02:58;3.57;;;3.03;;
68947;SDS011;55996;49.546;7.400;2023-07-22T01:05:24;3.63;;;3.00;;
68947;SDS011;55996;49.546;7.400;2023-07-22T01:07:51;3.27;;;2.90;;
68947;SDS011;55996;49.546;7.400;2023-07-22T01:10:17;3.57;;;2.80;;
68947;SDS011;55996;49.546;7.400;2023-07-22T01:12:44;4.70;;;2.70;;
68947;SDS011;55996;49.546;7.400;2023-07-22T01:15:10;4.60;;;2.90;;
68947;SDS011;55996;49.546;7.400;2023-07-22T01:17:38;3.80;;;3.00;;
68947;SDS011;55996;49.546;7.400;2023-07-22T01:20:05;4.30;;;2.90;;
68947;SDS011;55996;49.546;7.400;2023-07-22T01:22:34;4.40;;;3.10;;
68947;SDS011;55996;49.546;7.400;2023-07-22T01:25:01;4.60;;;2.80;;
68947;SDS011;55996;49.546;7.400;2023-07-22T01:27:27;3.73;;;3.37;;
68947;SDS011;55996;49.546;7.400;2023-07-22T01:29:52;3.50;;;3.20;;
68947;SDS011;55996;49.546;7.400;2023-07-22T01:32:17;4.10;;;3.27;;
68947;SDS011;55996;49.546;7.400;2023-07-22T01:34:43;3.17;;;2.97;;
68947;SDS011;55996;49.546;7.400;2023-07-22T01:37:08;3.80;;;3.07;;
68947;SDS011;55996;49.546;7.400;2023-07-22T01:39:34;3.67;;;3.10;;
68947;SDS011;55996;49.546;7.400;2023-07-22T01:42:01;4.57;;;3.10;;
68947;SDS011;55996;49.546;7.400;2023-07-22T01:44:26;3.50;;;3.17;;
68947;SDS011;55996;49.546;7.400;2023-07-22T01:46:52;3.33;;;2.80;;
68947;SDS011;55996;49.546;7.400;2023-07-22T01:49:17;3.60;;;3.20;;
68947;SDS011;55996;49.546;7.400;2023-07-22T01:51:43;4.07;;;3.27;;
68947;SDS011;55996;49.546;7.400;2023-07-22T01:54:08;4.27;;;3.07;;
68947;SDS011;55996;49.546;7.400;2023-07-22T01:56:35;3.50;;;3.00;;
68947;SDS011;55996;49.546;7.400;2023-07-22T01:59:03;5.70;;;3.40;;
68947;SDS011;55996;49.546;7.400;2023-07-22T02:01:29;3.17;;;2.90;;
68947;SDS011;55996;49.546;7.400;2023-07-22T02:03:55;4.23;;;3.10;;
68947;SDS011;55996;49.546;7.400;2023-07-22T02:06:21;8.57;;;3.60;;
68947;SDS011;55996;49.546;7.400;2023-07-22T02:08:46;5.13;;;2.90;;
68947;SDS011;55996;49.546;7.400;2023-07-22T02:11:12;3.43;;;2.90;;
68947;SDS011;55996;49.546;7.400;2023-07-22T02:13:38;6.13;;;3.10;;
68947;SDS011;55996;49.546;7.400;2023-07-22T02:16:03;3.00;;;2.77;;
68947;SDS011;55996;49.546;7.400;2023-07-22T02:18:29;3.87;;;3.10;;
68947;SDS011;55996;49.546;7.400;2023-07-22T02:20:55;3.30;;;3.00;;
68947;SDS011;55996;49.546;7.400;2023-07-22T02:23:21;3.53;;;3.20;;
68947;SDS011;55996;49.546;7.400;2023-07-22T02:25:48;3.20;;;2.90;;
68947;SDS011;55996;49.546;7.400;2023-07-22T02:28:18;3.63;;;3.07;;
68947;SDS011;55996;49.546;7.400;2023-07-22T02:30:46;3.10;;;2.90;;
68947;SDS011;55996;49.546;7.400;2023-07-22T02:33:17;4.60;;;2.97;;
68947;SDS011;55996;49.546;7.400;2023-07-22T02:35:43;5.77;;;3.20;;
68947;SDS011;55996;49.546;7.400;2023-07-22T02:38:08;4.10;;;3.13;;
68947;SDS011;55996;49.546;7.400;2023-07-22T02:40:35;3.50;;;3.00;;
68947;SDS011;55996;49.546;7.400;2023-07-22T02:43:01;4.10;;;2.93;;
68947;SDS011;55996;49.546;7.400;2023-07-22T02:45:26;3.60;;;3.20;;
68947;SDS011;55996;49.546;7.400;2023-07-22T02:47:52;4.33;;;3.60;;
68947;SDS011;55996;49.546;7.400;2023-07-22T02:50:17;3.67;;;3.10;;
68947;SDS011;55996;49.546;7.400;2023-07-22T02:52:43;3.27;;;2.97;;
68947;SDS011;55996;49.546;7.400;2023-07-22T02:57:35;3.53;;;3.20;;
68947;SDS011;55996;49.546;7.400;2023-07-22T03:00:02;4.47;;;3.07;;
68947;SDS011;55996;49.546;7.400;2023-07-22T03:02:32;4.23;;;2.90;;
68947;SDS011;55996;49.546;7.400;2023-07-22T03:04:57;3.47;;;2.87;;
68947;SDS011;55996;49.546;7.400;2023-07-22T03:07:23;3.43;;;3.17;;
68947;SDS011;55996;49.546;7.400;2023-07-22T03:09:51;3.80;;;3.00;;
68947;SDS011;55996;49.546;7.400;2023-07-22T03:12:16;3.47;;;3.03;;
68947;SDS011;55996;49.546;7.400;2023-07-22T03:14:42;4.93;;;3.17;;
68947;SDS011;55996;49.546;7.400;2023-07-22T03:17:07;4.20;;;3.07;;
68947;SDS011;55996;49.546;7.400;2023-07-22T03:19:33;3.43;;;3.00;;
68947;SDS011;55996;49.546;7.400;2023-07-22T03:21:58;4.40;;;3.47;;
68947;SDS011;55996;49.546;7.400;2023-07-22T03:24:24;3.30;;;3.10;;
68947;SDS011;55996;49.546;7.400;2023-07-22T03:26:50;3.87;;;3.27;;
68947;SDS011;55996;49.546;7.400;2023-07-22T03:29:15;3.17;;;2.80;;
68947;SDS011;55996;49.546;7.400;2023-07-22T03:31:41;4.70;;;2.93;;
68947;SDS011;55996;49.546;7.400;2023-07-22T03:34:06;4.43;;;3.10;;
68947;SDS011;55996;49.546;7.400;2023-07-22T03:36:32;3.43;;;2.63;;
68947;SDS011;55996;49.546;7.400;2023-07-22T03:39:00;3.60;;;3.30;;
68947;SDS011;55996;49.546;7.400;2023-07-22T03:41:27;3.87;;;2.93;;
68947;SDS011;55996;49.546;7.400;2023-07-22T03:43:53;4.20;;;2.90;;
68947;SDS011;55996;49.546;7.400;2023-07-22T03:46:18;3.63;;;2.80;;
68947;SDS011;55996;49.546;7.400;2023-07-22T03:48:44;5.30;;;2.87;;
68947;SDS011;55996;49.546;7.400;2023-07-22T03:51:09;3.97;;;3.20;;
68947;SDS011;55996;49.546;7.400;2023-07-22T03:53:35;4.70;;;3.03;;
68947;SDS011;55996;49.546;7.400;2023-07-22T03:56:00;6.97;;;3.20;;
68947;SDS011;55996;49.546;7.400;2023-07-22T03:58:26;4.20;;;2.90;;
68947;SDS011;55996;49.546;7.400;2023-07-22T04:00:51;3.33;;;3.03;;
68947;SDS011;55996;49.546;7.400;2023-07-22T04:03:17;3.83;;;3.40;;
68947;SDS011;55996;49.546;7.400;2023-07-22T04:05:42;3.27;;;2.90;;
68947;SDS011;55996;49.546;7.400;2023-07-22T04:08:07;4.40;;;3.10;;
68947;SDS011;55996;49.546;7.400;2023-07-22T04:10:33;4.47;;;3.27;;
68947;SDS011;55996;49.546;7.400;2023-07-22T04:12:58;4.73;;;3.13;;
68947;SDS011;55996;49.546;7.400;2023-07-22T04:15:24;3.63;;;3.20;;
68947;SDS011;55996;49.546;7.400;2023-07-22T04:17:50;4.23;;;3.00;;
68947;SDS011;55996;49.546;7.400;2023-07-22T04:20:15;4.37;;;3.20;;
68947;SDS011;55996;49.546;7.400;2023-07-22T04:22:41;3.20;;;2.90;;
68947;SDS011;55996;49.546;7.400;2023-07-22T04:25:06;4.03;;;3.00;;
68947;SDS011;55996;49.546;7.400;2023-07-22T04:27:32;3.73;;;3.27;;
68947;SDS011;55996;49.546;7.400;2023-07-22T04:29:57;3.93;;;2.83;;
68947;SDS011;55996;49.546;7.400;2023-07-22T04:32:23;5.30;;;2.90;;
68947;SDS011;55996;49.546;7.400;2023-07-22T04:34:48;3.30;;;3.00;;
68947;SDS011;55996;49.546;7.400;2023-07-22T04:37:14;3.20;;;2.83;;
68947;SDS011;55996;49.546;7.400;2023-07-22T04:39:41;3.93;;;3.20;;
68947;SDS011;55996;49.546;7.400;2023-07-22T04:42:07;4.47;;;3.27;;
68947;SDS011;55996;49.546;7.400;2023-07-22T04:44:33;3.70;;;3.10;;
68947;SDS011;55996;49.546;7.400;2023-07-22T04:46:58;3.40;;;3.10;;
68947;SDS011;55996;49.546;7.400;2023-07-22T04:49:24;4.37;;;3.33;;
68947;SDS011;55996;49.546;7.400;2023-07-22T04:51:49;3.47;;;3.17;;
68947;SDS011;55996;49.546;7.400;2023-07-22T04:54:15;3.50;;;3.20;;
68947;SDS011;55996;49.546;7.400;2023-07-22T04:56:41;3.50;;;3.20;;
68947;SDS011;55996;49.546;7.400;2023-07-22T04:59:07;4.13;;;3.20;;
68947;SDS011;55996;49.546;7.400;2023-07-22T05:01:32;3.57;;;3.23;;
68947;SDS011;55996;49.546;7.400;2023-07-22T05:03:58;4.07;;;3.40;;
68947;SDS011;55996;49.546;7.400;2023-07-22T05:06:23;3.93;;;3.10;;
68947;SDS011;55996;49.546;7.400;2023-07-22T05:08:50;4.67;;;3.50;;
68947;SDS011;55996;49.546;7.400;2023-07-22T05:11:15;3.93;;;3.60;;
68947;SDS011;55996;49.546;7.400;2023-07-22T05:13:41;4.20;;;3.43;;
68947;SDS011;55996;49.546;7.400;2023-07-22T05:16:07;3.70;;;3.40;;
68947;SDS011;55996;49.546;7.400;2023-07-22T05:18:32;4.10;;;3.47;;
68947;SDS011;55996;49.546;7.400;2023-07-22T05:20:57;3.63;;;3.23;;
68947;SDS011;55996;49.546;7.400;2023-07-22T05:23:23;3.90;;;3.60;;
68947;SDS011;55996;49.546;7.400;2023-07-22T05:25:52;4.57;;;4.10;;
68947;SDS011;55996;49.546;7.400;2023-07-22T05:28:18;4.27;;;3.87;;
68947;SDS011;55996;49.546;7.400;2023-07-22T05:30:44;3.90;;;3.50;;
68947;SDS011;55996;49.546;7.400;2023-07-22T05:33:09;4.43;;;3.43;;
68947;SDS011;55996;49.546;7.400;2023-07-22T05:35:34;3.97;;;3.43;;
68947;SDS011;55996;49.546;7.400;2023-07-22T05:38:00;3.97;;;3.67;;
68947;SDS011;55996;49.546;7.400;2023-07-22T05:40:29;3.83;;;3.43;;
68947;SDS011;55996;49.546;7.400;2023-07-22T05:42:54;4.37;;;3.93;;
68947;SDS011;55996;49.546;7.400;2023-07-22T05:45:22;4.33;;;3.33;;
68947;SDS011;55996;49.546;7.400;2023-07-22T05:47:48;3.50;;;3.20;;
68947;SDS011;55996;49.546;7.400;2023-07-22T05:50:13;3.47;;;3.17;;
68947;SDS011;55996;49.546;7.400;2023-07-22T05:52:39;4.10;;;3.70;;
68947;SDS011;55996;49.546;7.400;2023-07-22T05:55:04;3.57;;;3.27;;
68947;SDS011;55996;49.546;7.400;2023-07-22T05:57:30;5.13;;;3.60;;
68947;SDS011;55996;49.546;7.400;2023-07-22T05:59:56;3.90;;;3.60;;
68947;SDS011;55996;49.546;7.400;2023-07-22T06:02:21;4.27;;;3.60;;
68947;SDS011;55996;49.546;7.400;2023-07-22T06:04:47;5.27;;;3.80;;
68947;SDS011;55996;49.546;7.400;2023-07-22T06:07:13;4.10;;;3.70;;
68947;SDS011;55996;49.546;7.400;2023-07-22T06:09:38;5.23;;;3.70;;
68947;SDS011;55996;49.546;7.400;2023-07-22T06:12:04;5.40;;;3.50;;
68947;SDS011;55996;49.546;7.400;2023-07-22T06:14:29;4.00;;;3.50;;
68947;SDS011;55996;49.546;7.400;2023-07-22T06:16:55;4.00;;;3.13;;
68947;SDS011;55996;49.546;7.400;2023-07-22T06:19:20;4.17;;;3.70;;
68947;SDS011;55996;49.546;7.400;2023-07-22T06:21:46;5.17;;;3.07;;
68947;SDS011;55996;49.546;7.400;2023-07-22T06:24:11;4.47;;;3.10;;
68947;SDS011;55996;49.546;7.400;2023-07-22T06:26:36;4.03;;;3.40;;
68947;SDS011;55996;49.546;7.400;2023-07-22T06:29:02;5.53;;;3.30;;
68947;SDS011;55996;49.546;7.400;2023-07-22T06:31:27;4.97;;;3.17;;
68947;SDS011;55996;49.546;7.400;2023-07-22T06:33:56;5.23;;;3.50;;
68947;SDS011;55996;49.546;7.400;2023-07-22T06:36:22;4.53;;;3.30;;
68947;SDS011;55996;49.546;7.400;2023-07-22T06:38:48;4.03;;;3.10;;
68947;SDS011;55996;49.546;7.400;2023-07-22T06:41:13;4.80;;;3.40;;
68947;SDS011;55996;49.546;7.400;2023-07-22T06:43:39;6.80;;;3.57;;
68947;SDS011;55996;49.546;7.400;2023-07-22T06:46:05;4.53;;;3.50;;
68947;SDS011;55996;49.546;7.400;2023-07-22T06:48:30;3.83;;;3.47;;
68947;SDS011;55996;49.546;7.400;2023-07-22T06:50:56;3.53;;;3.23;;
68947;SDS011;55996;49.546;7.400;2023-07-22T06:53:21;5.10;;;3.50;;
68947;SDS011;55996;49.546;7.400;2023-07-22T06:55:50;3.93;;;3.27;;
68947;SDS011;55996;49.546;7.400;2023-07-22T06:58:17;7.93;;;3.20;;
68947;SDS011;55996;49.546;7.400;2023-07-22T07:00:42;4.17;;;3.20;;
68947;SDS011;55996;49.546;7.400;2023-07-22T07:03:08;4.00;;;3.30;;
68947;SDS011;55996;49.546;7.400;2023-07-22T07:05:33;3.33;;;3.03;;
68947;SDS011;55996;49.546;7.400;2023-07-22T07:07:59;3.83;;;3.17;;
68947;SDS011;55996;49.546;7.400;2023-07-22T07:10:25;5.23;;;3.10;;
68947;SDS011;55996;49.546;7.400;2023-07-22T07:12:51;4.43;;;3.20;;
68947;SDS011;55996;49.546;7.400;2023-07-22T07:15:16;4.10;;;3.50;;
68947;SDS011;55996;49.546;7.400;2023-07-22T07:17:42;4.53;;;3.37;;
68947;SDS011;55996;49.546;7.400;2023-07-22T07:20:07;3.60;;;3.30;;
68947;SDS011;55996;49.546;7.400;2023-07-22T07:22:33;5.00;;;3.13;;
68947;SDS011;55996;49.546;7.400;2023-07-22T07:24:58;6.07;;;3.50;;
68947;SDS011;55996;49.546;7.400;2023-07-22T07:27:24;3.97;;;3.30;;
68947;SDS011;55996;49.546;7.400;2023-07-22T07:29:49;5.77;;;2.90;;
68947;SDS011;55996;49.546;7.400;2023-07-22T07:32:15;5.07;;;3.30;;
68947;SDS011;55996;49.546;7.400;2023-07-22T07:34:40;4.63;;;3.40;;
68947;SDS011;55996;49.546;7.400;2023-07-22T07:37:06;3.43;;;3.13;;
68947;SDS011;55996;49.546;7.400;2023-07-22T07:39:31;4.50;;;3.33;;
68947;SDS011;55996;49.546;7.400;2023-07-22T07:41:56;7.33;;;3.80;;
68947;SDS011;55996;49.546;7.400;2023-07-22T07:44:22;4.17;;;3.33;;
68947;SDS011;55996;49.546;7.400;2023-07-22T07:46:47;4.50;;;3.30;;
68947;SDS011;55996;49.546;7.400;2023-07-22T07:49:13;5.03;;;3.30;;
68947;SDS011;55996;49.546;7.400;2023-07-22T07:51:39;4.97;;;3.50;;
68947;SDS011;55996;49.546;7.400;2023-07-22T07:54:07;4.03;;;3.00;;
68947;SDS011;55996;49.546;7.400;2023-07-22T07:56:33;4.63;;;3.70;;
68947;SDS011;55996;49.546;7.400;2023-07-22T07:58:58;6.43;;;3.70;;
68947;SDS011;55996;49.546;7.400;2023-07-22T08:01:23;6.15;;;4.05;;
68947;SDS011;55996;49.546;7.400;2023-07-22T08:03:49;6.07;;;3.90;;
68947;SDS011;55996;49.546;7.400;2023-07-22T08:06:14;5.40;;;4.00;;
68947;SDS011;55996;49.546;7.400;2023-07-22T08:08:40;6.22;;;4.72;;
68947;SDS011;55996;49.546;7.400;2023-07-22T08:11:06;4.70;;;4.20;;
68947;SDS011;55996;49.546;7.400;2023-07-22T08:13:38;5.10;;;4.37;;
68947;SDS011;55996;49.546;7.400;2023-07-22T08:16:05;4.53;;;4.13;;
68947;SDS011;55996;49.546;7.400;2023-07-22T08:18:35;6.88;;;4.20;;
68947;SDS011;55996;49.546;7.400;2023-07-22T08:21:02;5.88;;;4.15;;
68947;SDS011;55996;49.546;7.400;2023-07-22T08:23:28;4.65;;;4.07;;
68947;SDS011;55996;49.546;7.400;2023-07-22T08:25:54;4.85;;;4.22;;
68947;SDS011;55996;49.546;7.400;2023-07-22T08:28:19;6.15;;;4.47;;
68947;SDS011;55996;49.546;7.400;2023-07-22T08:30:44;6.20;;;4.00;;
68947;SDS011;55996;49.546;7.400;2023-07-22T08:33:10;6.60;;;3.72;;
68947;SDS011;55996;49.546;7.400;2023-07-22T08:35:37;7.30;;;4.20;;
68947;SDS011;55996;49.546;7.400;2023-07-22T08:38:04;4.13;;;3.30;;
68947;SDS011;55996;49.546;7.400;2023-07-22T08:40:33;4.65;;;3.70;;
68947;SDS011;55996;49.546;7.400;2023-07-22T08:43:00;4.45;;;3.58;;
68947;SDS011;55996;49.546;7.400;2023-07-22T08:45:29;4.53;;;3.60;;
68947;SDS011;55996;49.546;7.400;2023-07-22T08:47:57;4.38;;;3.67;;
68947;SDS011;55996;49.546;7.400;2023-07-22T08:50:23;7.20;;;3.70;;
68947;SDS011;55996;49.546;7.400;2023-07-22T08:52:55;5.50;;;3.85;;
68947;SDS011;55996;49.546;7.400;2023-07-22T08:55:24;5.25;;;3.80;;
68947;SDS011;55996;49.546;7.400;2023-07-22T08:57:50;6.07;;;4.35;;
68947;SDS011;55996;49.546;7.400;2023-07-22T09:00:17;6.70;;;3.80;;
68947;SDS011;55996;49.546;7.400;2023-07-22T09:02:43;4.75;;;3.78;;
68947;SDS011;55996;49.546;7.400;2023-07-22T09:05:09;6.80;;;3.92;;
68947;SDS011;55996;49.546;7.400;2023-07-22T09:07:35;4.35;;;3.60;;
68947;SDS011;55996;49.546;7.400;2023-07-22T09:10:03;4.30;;;3.65;;
68947;SDS011;55996;49.546;7.400;2023-07-22T09:12:30;4.25;;;3.88;;
68947;SDS011;55996;49.546;7.400;2023-07-22T09:14:56;4.80;;;3.97;;
68947;SDS011;55996;49.546;7.400;2023-07-22T09:17:22;5.13;;;3.85;;
68947;SDS011;55996;49.546;7.400;2023-07-22T09:19:51;4.97;;;3.78;;
68947;SDS011;55996;49.546;7.400;2023-07-22T09:22:18;7.35;;;4.13;;
68947;SDS011;55996;49.546;7.400;2023-07-22T09:24:49;5.80;;;3.70;;
68947;SDS011;55996;49.546;7.400;2023-07-22T09:27:15;5.07;;;3.88;;
68947;SDS011;55996;49.546;7.400;2023-07-22T09:29:40;6.97;;;4.13;;
68947;SDS011;55996;49.546;7.400;2023-07-22T09:32:06;5.72;;;3.63;;
68947;SDS011;55996;49.546;7.400;2023-07-22T09:34:32;4.72;;;4.03;;
68947;SDS011;55996;49.546;7.400;2023-07-22T09:36:58;5.43;;;4.13;;
68947;SDS011;55996;49.546;7.400;2023-07-22T09:39:29;5.07;;;4.50;;
68947;SDS011;55996;49.546;7.400;2023-07-22T09:41:55;7.78;;;4.00;;
68947;SDS011;55996;49.546;7.400;2023-07-22T09:44:21;5.65;;;4.53;;
68947;SDS011;55996;49.546;7.400;2023-07-22T09:46:48;7.97;;;4.00;;
68947;SDS011;55996;49.546;7.400;2023-07-22T09:49:15;6.78;;;4.60;;
68947;SDS011;55996;49.546;7.400;2023-07-22T09:51:42;6.70;;;3.50;;
68947;SDS011;55996;49.546;7.400;2023-07-22T09:54:08;7.88;;;4.50;;
68947;SDS011;55996;49.546;7.400;2023-07-22T09:56:46;7.88;;;4.10;;
68947;SDS011;55996;49.546;7.400;2023-07-22T09:59:13;7.45;;;3.88;;
68947;SDS011;55996;49.546;7.400;2023-07-22T10:01:39;7.55;;;4.10;;
68947;SDS011;55996;49.546;7.400;2023-07-22T10:04:06;4.40;;;3.92;;
68947;SDS011;55996;49.546;7.400;2023-07-22T10:06:33;4.45;;;3.95;;
68947;SDS011;55996;49.546;7.400;2023-07-22T10:09:03;5.25;;;3.90;;
68947;SDS011;55996;49.546;7.400;2023-07-22T10:11:33;5.97;;;3.63;;
68947;SDS011;55996;49.546;7.400;2023-07-22T10:14:03;10.30;;;4.13;;
68947;SDS011;55996;49.546;7.400;2023-07-22T10:16:29;8.30;;;3.70;;
68947;SDS011;55996;49.546;7.400;2023-07-22T10:18:55;6.00;;;3.90;;
68947;SDS011;55996;49.546;7.400;2023-07-22T10:21:22;3.80;;;3.33;;
68947;SDS011;55996;49.546;7.400;2023-07-22T10:23:49;5.13;;;3.60;;
68947;SDS011;55996;49.546;7.400;2023-07-22T10:26:16;6.70;;;3.50;;
68947;SDS011;55996;49.546;7.400;2023-07-22T10:28:46;4.25;;;3.67;;
68947;SDS011;55996;49.546;7.400;2023-07-22T10:31:13;8.95;;;3.60;;
68947;SDS011;55996;49.546;7.400;2023-07-22T10:33:39;5.55;;;3.45;;
68947;SDS011;55996;49.546;7.400;2023-07-22T10:36:08;6.95;;;3.70;;
68947;SDS011;55996;49.546;7.400;2023-07-22T10:38:37;4.07;;;3.55;;
68947;SDS011;55996;49.546;7.400;2023-07-22T10:41:13;7.70;;;3.67;;
68947;SDS011;55996;49.546;7.400;2023-07-22T10:43:53;3.63;;;2.95;;
68947;SDS011;55996;49.546;7.400;2023-07-22T10:46:30;4.10;;;3.67;;
68947;SDS011;55996;49.546;7.400;2023-07-22T10:49:14;4.65;;;3.22;;
68947;SDS011;55996;49.546;7.400;2023-07-22T10:51:41;6.50;;;3.83;;
68947;SDS011;55996;49.546;7.400;2023-07-22T10:54:12;5.20;;;3.30;;
68947;SDS011;55996;49.546;7.400;2023-07-22T10:56:47;5.20;;;3.45;;
68947;SDS011;55996;49.546;7.400;2023-07-22T10:59:13;4.38;;;3.60;;
68947;SDS011;55996;49.546;7.400;2023-07-22T11:01:39;4.50;;;3.53;;
68947;SDS011;55996;49.546;7.400;2023-07-22T11:11:53;5.80;;;3.70;;
68947;SDS011;55996;49.546;7.400;2023-07-22T11:14:53;7.53;;;3.85;;
68947;SDS011;55996;49.546;7.400;2023-07-22T11:17:29;5.82;;;4.35;;
68947;SDS011;55996;49.546;7.400;2023-07-22T11:19:56;10.25;;;4.18;;
68947;SDS011;55996;49.546;7.400;2023-07-22T11:22:22;8.20;;;4.00;;
68947;SDS011;55996;49.546;7.400;2023-07-22T11:24:48;5.05;;;3.60;;
68947;SDS011;55996;49.546;7.400;2023-07-22T11:27:13;7.68;;;3.58;;
68947;SDS011;55996;49.546;7.400;2023-07-22T11:29:39;4.65;;;3.50;;
68947;SDS011;55996;49.546;7.400;2023-07-22T11:32:05;7.22;;;3.40;;
68947;SDS011;55996;49.546;7.400;2023-07-22T11:34:32;9.15;;;3.58;;
68947;SDS011;55996;49.546;7.400;2023-07-22T11:36:58;4.72;;;3.67;;
68947;SDS011;55996;49.546;7.400;2023-07-22T11:39:24;6.55;;;3.47;;
68947;SDS011;55996;49.546;7.400;2023-07-22T11:41:51;6.57;;;3.45;;
68947;SDS011;55996;49.546;7.400;2023-07-22T11:44:21;5.35;;;3.22;;
68947;SDS011;55996;49.546;7.400;2023-07-22T11:46:52;3.42;;;2.92;;
68947;SDS011;55996;49.546;7.400;2023-07-22T11:49:25;5.68;;;2.97;;
68947;SDS011;55996;49.546;7.400;2023-07-22T11:52:01;3.60;;;3.30;;
68947;SDS011;55996;49.546;7.400;2023-07-22T11:54:29;7.03;;;3.50;;
68947;SDS011;55996;49.546;7.400;2023-07-22T11:56:56;5.22;;;3.88;;
68947;SDS011;55996;49.546;7.400;2023-07-22T11:59:38;3.67;;;3.10;;
68947;SDS011;55996;49.546;7.400;2023-07-22T12:02:04;4.75;;;3.35;;
68947;SDS011;55996;49.546;7.400;2023-07-22T12:04:31;5.88;;;3.47;;
68947;SDS011;55996;49.546;7.400;2023-07-22T12:06:58;6.82;;;3.38;;
68947;SDS011;55996;49.546;7.400;2023-07-22T12:09:23;6.68;;;3.42;;
68947;SDS011;55996;49.546;7.400;2023-07-22T12:11:56;5.75;;;3.55;;
68947;SDS011;55996;49.546;7.400;2023-07-22T12:14:34;4.40;;;3.13;;
68947;SDS011;55996;49.546;7.400;2023-07-22T12:17:00;4.82;;;3.35;;
68947;SDS011;55996;49.546;7.400;2023-07-22T12:19:29;5.00;;;3.40;;
68947;SDS011;55996;49.546;7.400;2023-07-22T12:21:55;3.58;;;3.10;;
68947;SDS011;55996;49.546;7.400;2023-07-22T12:24:21;4.93;;;3.45;;
68947;SDS011;55996;49.546;7.400;2023-07-22T12:26:46;3.97;;;3.05;;
68947;SDS011;55996;49.546;7.400;2023-07-22T12:29:12;5.57;;;3.30;;
68947;SDS011;55996;49.546;7.400;2023-07-22T12:31:37;3.55;;;3.05;;
68947;SDS011;55996;49.546;7.400;2023-07-22T12:34:03;4.00;;;3.42;;
68947;SDS011;55996;49.546;7.400;2023-07-22T12:36:28;4.00;;;3.00;;
68947;SDS011;55996;49.546;7.400;2023-07-22T12:38:54;6.13;;;3.10;;
68947;SDS011;55996;49.546;7.400;2023-07-22T12:41:19;5.55;;;3.33;;
68947;SDS011;55996;49.546;7.400;2023-07-22T12:43:45;4.85;;;3.35;;
68947;SDS011;55996;49.546;7.400;2023-07-22T12:46:10;3.38;;;3.08;;
68947;SDS011;55996;49.546;7.400;2023-07-22T12:48:36;3.50;;;3.20;;
68947;SDS011;55996;49.546;7.400;2023-07-22T12:51:01;4.03;;;3.15;;
68947;SDS011;55996;49.546;7.400;2023-07-22T12:53:27;3.75;;;3.40;;
68947;SDS011;55996;49.546;7.400;2023-07-22T12:55:53;3.92;;;3.40;;
68947;SDS011;55996;49.546;7.400;2023-07-22T12:58:18;4.80;;;3.08;;
68947;SDS011;55996;49.546;7.400;2023-07-22T13:00:44;3.67;;;3.17;;
68947;SDS011;55996;49.546;7.400;2023-07-22T13:03:09;5.88;;;3.22;;
68947;SDS011;55996;49.546;7.400;2023-07-22T13:05:36;5.47;;;3.42;;
68947;SDS011;55996;49.546;7.400;2023-07-22T13:08:01;4.63;;;3.50;;
68947;SDS011;55996;49.546;7.400;2023-07-22T13:10:28;4.90;;;3.28;;
68947;SDS011;55996;49.546;7.400;2023-07-22T13:12:54;5.25;;;3.40;;
68947;SDS011;55996;49.546;7.400;2023-07-22T13:15:20;3.55;;;3.25;;
68947;SDS011;55996;49.546;7.400;2023-07-22T13:17:45;4.50;;;3.53;;
68947;SDS011;55996;49.546;7.400;2023-07-22T13:20:11;3.65;;;3.25;;
68947;SDS011;55996;49.546;7.400;2023-07-22T13:22:37;6.57;;;3.20;;
68947;SDS011;55996;49.546;7.400;2023-07-22T13:25:04;5.40;;;3.58;;
68947;SDS011;55996;49.546;7.400;2023-07-22T13:27:30;8.23;;;3.50;;
68947;SDS011;55996;49.546;7.400;2023-07-22T13:29:55;5.65;;;3.88;;
68947;SDS011;55996;49.546;7.400;2023-07-22T13:32:21;7.97;;;4.10;;
68947;SDS011;55996;49.546;7.400;2023-07-22T13:34:46;8.07;;;4.25;;
68947;SDS011;55996;49.546;7.400;2023-07-22T13:37:12;6.22;;;4.10;;
68947;SDS011;55996;49.546;7.400;2023-07-22T13:39:37;4.00;;;3.58;;
68947;SDS011;55996;49.546;7.400;2023-07-22T13:42:02;8.52;;;4.35;;
68947;SDS011;55996;49.546;7.400;2023-07-22T13:44:28;6.40;;;3.33;;
68947;SDS011;55996;49.546;7.400;2023-07-22T13:46:53;5.40;;;3.55;;
68947;SDS011;55996;49.546;7.400;2023-07-22T13:49:19;4.28;;;3.47;;
68947;SDS011;55996;49.546;7.400;2023-07-22T13:51:44;6.00;;;3.80;;
68947;SDS011;55996;49.546;7.400;2023-07-22T13:54:10;5.90;;;3.35;;
68947;SDS011;55996;49.546;7.400;2023-07-22T13:56:35;3.78;;;3.38;;
68947;SDS011;55996;49.546;7.400;2023-07-22T13:59:00;3.65;;;3.30;;
68947;SDS011;55996;49.546;7.400;2023-07-22T14:01:28;3.78;;;3.20;;
68947;SDS011;55996;49.546;7.400;2023-07-22T14:03:54;5.95;;;3.40;;
68947;SDS011;55996;49.546;7.400;2023-07-22T14:06:19;4.72;;;3.47;;
68947;SDS011;55996;49.546;7.400;2023-07-22T14:08:45;4.28;;;3.40;;
68947;SDS011;55996;49.546;7.400;2023-07-22T14:11:10;8.15;;;3.50;;
68947;SDS011;55996;49.546;7.400;2023-07-22T14:13:36;6.22;;;3.53;;
68947;SDS011;55996;49.546;7.400;2023-07-22T14:16:02;4.97;;;3.50;;
68947;SDS011;55996;49.546;7.400;2023-07-22T14:18:28;3.72;;;3.35;;
68947;SDS011;55996;49.546;7.400;2023-07-22T14:20:54;4.00;;;3.33;;
68947;SDS011;55996;49.546;7.400;2023-07-22T14:23:19;4.90;;;3.22;;
68947;SDS011;55996;49.546;7.400;2023-07-22T14:25:45;4.65;;;3.75;;
68947;SDS011;55996;49.546;7.400;2023-07-22T14:28:10;8.25;;;3.55;;
68947;SDS011;55996;49.546;7.400;2023-07-22T14:30:35;5.13;;;3.40;;
68947;SDS011;55996;49.546;7.400;2023-07-22T14:33:01;5.65;;;3.00;;
68947;SDS011;55996;49.546;7.400;2023-07-22T14:35:27;3.60;;;3.22;;
68947;SDS011;55996;49.546;7.400;2023-07-22T14:37:52;3.40;;;3.10;;
68947;SDS011;55996;49.546;7.400;2023-07-22T14:40:18;5.82;;;3.40;;
68947;SDS011;55996;49.546;7.400;2023-07-22T14:42:45;3.55;;;3.20;;
68947;SDS011;55996;49.546;7.400;2023-07-22T14:45:10;4.15;;;3.25;;
68947;SDS011;55996;49.546;7.400;2023-07-22T14:47:35;4.28;;;3.33;;
68947;SDS011;55996;49.546;7.400;2023-07-22T14:50:01;8.63;;;3.40;;
68947;SDS011;55996;49.546;7.400;2023-07-22T14:52:27;7.22;;;3.13;;
68947;SDS011;55996;49.546;7.400;2023-07-22T14:54:52;3.53;;;2.95;;